Time;durP1;ratioP1;P1;durP2;ratioP2;P2;SDS_P1;SDS_P2;PMS_P1;PMS_P2;Temp;Humidity;BMP_temperature;BMP_pressure;BME280_temperature;BME280_humidity;BME280_pressure;Samples;Min_cycle;Max_cycle;Signal;HPM_P1;HPM_P2
2022/07/17 00:01:14;;;;;;;3.90;1.57;;;;;;;;;;5042748;28;21696;-81
2022/07/17 00:03:42;;;;;;;4.87;1.97;;;;;;;;;;5045517;28;20334;-81
2022/07/17 00:06:09;;;;;;;2.23;1.53;;;;;;;;;;5047216;28;20207;-81
2022/07/17 00:08:37;;;;;;;4.83;1.80;;;;;;;;;;5043946;28;20202;-81
2022/07/17 00:11:04;;;;;;;4.47;1.80;;;;;;;;;;5046019;28;20290;-81
2022/07/17 00:13:31;;;;;;;2.20;1.77;;;;;;;;;;5043568;28;20224;-81
2022/07/17 00:15:59;;;;;;;7.17;1.87;;;;;;;;;;5047887;28;20297;-81
2022/07/17 00:18:26;;;;;;;6.17;2.10;;;;;;;;;;5041263;28;20204;-81
2022/07/17 00:20:54;;;;;;;3.93;1.70;;;;;;;;;;5044238;28;20298;-81
2022/07/17 00:23:21;;;;;;;5.03;1.80;;;;;;;;;;5041769;28;20342;-81
2022/07/17 00:25:48;;;;;;;4.70;2.00;;;;;;;;;;5043660;28;20294;-81
2022/07/17 00:28:16;;;;;;;2.50;1.57;;;;;;;;;;5043886;28;20222;-81
2022/07/17 00:30:43;;;;;;;5.13;1.50;;;;;;;;;;5043719;28;20219;-81
2022/07/17 00:33:10;;;;;;;5.33;1.63;;;;;;;;;;5041807;28;20233;-82
2022/07/17 00:35:37;;;;;;;2.90;1.40;;;;;;;;;;5044480;28;20745;-82
2022/07/17 00:38:06;;;;;;;2.57;1.40;;;;;;;;;;5041627;28;20274;-81
2022/07/17 00:40:33;;;;;;;4.33;1.90;;;;;;;;;;5045943;28;20273;-81
2022/07/17 00:43:00;;;;;;;4.50;1.70;;;;;;;;;;5044391;28;20279;-81
2022/07/17 00:48:11;;;;;;;4.93;1.53;;;;;;;;;;5017996;28;20207;-81
2022/07/17 00:50:39;;;;;;;4.37;1.80;;;;;;;;;;5043741;28;20255;-81
2022/07/17 00:53:10;;;;;;;7.47;1.73;;;;;;;;;;5039962;28;20269;-81
2022/07/17 00:55:37;;;;;;;6.47;1.60;;;;;;;;;;5043901;28;20203;-81
2022/07/17 00:58:06;;;;;;;5.30;1.70;;;;;;;;;;5043568;28;20207;-81
2022/07/17 01:00:33;;;;;;;7.33;1.70;;;;;;;;;;5041019;28;20671;-81
2022/07/17 01:03:01;;;;;;;3.50;1.57;;;;;;;;;;5042259;28;20338;-81
2022/07/17 01:05:28;;;;;;;3.77;1.67;;;;;;;;;;5043571;28;20295;-81
2022/07/17 01:07:55;;;;;;;4.47;1.60;;;;;;;;;;5045223;28;20202;-81
2022/07/17 01:10:24;;;;;;;5.10;2.30;;;;;;;;;;5047520;28;20227;-82
2022/07/17 01:12:51;;;;;;;3.53;1.67;;;;;;;;;;5046832;28;20219;-81
2022/07/17 01:15:18;;;;;;;5.53;2.07;;;;;;;;;;5044499;28;20261;-81
2022/07/17 01:17:47;;;;;;;5.60;1.93;;;;;;;;;;5038702;28;20761;-82
2022/07/17 01:20:14;;;;;;;5.67;1.43;;;;;;;;;;5043556;28;20570;-80
2022/07/17 01:22:44;;;;;;;4.20;1.60;;;;;;;;;;5044455;28;20303;-82
2022/07/17 01:25:11;;;;;;;6.73;1.53;;;;;;;;;;5040870;28;20299;-81
2022/07/17 01:27:38;;;;;;;4.73;2.20;;;;;;;;;;5040807;28;20491;-81
2022/07/17 01:30:06;;;;;;;4.07;1.97;;;;;;;;;;5042265;28;20214;-81
2022/07/17 01:32:34;;;;;;;6.23;1.90;;;;;;;;;;5042587;28;20291;-80
2022/07/17 01:35:01;;;;;;;4.03;1.67;;;;;;;;;;5039983;28;20696;-81
2022/07/17 01:37:28;;;;;;;3.50;1.57;;;;;;;;;;5039446;28;21994;-81
2022/07/17 01:39:57;;;;;;;4.00;1.57;;;;;;;;;;5041975;28;20594;-81
2022/07/17 01:42:25;;;;;;;6.40;1.67;;;;;;;;;;5045369;28;20647;-81
2022/07/17 01:44:52;;;;;;;3.53;1.40;;;;;;;;;;5044691;28;20753;-81
2022/07/17 01:47:21;;;;;;;2.90;1.57;;;;;;;;;;5043819;28;20671;-81
2022/07/17 01:49:49;;;;;;;5.97;1.80;;;;;;;;;;5044486;28;20269;-82
2022/07/17 01:52:16;;;;;;;6.63;1.63;;;;;;;;;;5042046;28;20210;-81
2022/07/17 01:54:44;;;;;;;5.67;1.63;;;;;;;;;;5037407;28;20250;-81
2022/07/17 01:57:13;;;;;;;7.03;1.60;;;;;;;;;;5041140;28;20285;-81
2022/07/17 01:59:41;;;;;;;3.73;1.50;;;;;;;;;;5039509;28;20206;-82
2022/07/17 02:02:09;;;;;;;3.40;1.60;;;;;;;;;;5044904;28;20213;-81
2022/07/17 02:04:36;;;;;;;4.23;1.40;;;;;;;;;;5041652;28;20291;-82
2022/07/17 02:07:04;;;;;;;5.97;1.73;;;;;;;;;;5048134;28;20239;-81
2022/07/17 02:09:32;;;;;;;3.80;1.47;;;;;;;;;;5056381;28;20521;-81
2022/07/17 02:11:59;;;;;;;7.70;1.87;;;;;;;;;;5047905;28;20679;-81
2022/07/17 02:14:27;;;;;;;5.90;1.60;;;;;;;;;;5042367;28;20241;-81
2022/07/17 02:16:54;;;;;;;6.17;1.50;;;;;;;;;;5038713;28;20206;-81
2022/07/17 02:19:22;;;;;;;5.80;1.70;;;;;;;;;;5041927;28;20203;-81
2022/07/17 02:21:49;;;;;;;3.07;1.70;;;;;;;;;;5042448;28;20202;-80
2022/07/17 02:24:16;;;;;;;6.30;1.40;;;;;;;;;;5038576;28;20227;-81
2022/07/17 02:26:43;;;;;;;3.13;1.60;;;;;;;;;;5045011;28;20286;-81
2022/07/17 02:29:10;;;;;;;3.07;1.57;;;;;;;;;;5042052;28;20203;-81
2022/07/17 02:31:39;;;;;;;2.50;1.60;;;;;;;;;;5043023;28;20663;-81
2022/07/17 02:34:06;;;;;;;1.97;1.40;;;;;;;;;;5040352;28;20604;-81
2022/07/17 02:36:33;;;;;;;5.40;2.00;;;;;;;;;;5044082;28;20207;-80
2022/07/17 02:39:01;;;;;;;4.17;1.80;;;;;;;;;;5043239;28;20298;-80
2022/07/17 02:41:28;;;;;;;3.17;1.60;;;;;;;;;;5044750;28;20209;-81
2022/07/17 02:43:55;;;;;;;3.80;1.47;;;;;;;;;;5043467;28;20313;-81
2022/07/17 02:46:22;;;;;;;1.93;1.57;;;;;;;;;;5045420;28;20290;-81
2022/07/17 02:48:51;;;;;;;3.60;1.53;;;;;;;;;;5045590;28;20294;-82
2022/07/17 02:51:18;;;;;;;8.10;1.27;;;;;;;;;;5045509;28;20208;-81
2022/07/17 02:53:45;;;;;;;3.40;1.30;;;;;;;;;;5045027;28;20258;-81
2022/07/17 02:56:12;;;;;;;4.83;1.53;;;;;;;;;;5045697;28;20723;-81
2022/07/17 02:58:40;;;;;;;2.83;1.63;;;;;;;;;;5044909;28;20694;-81
2022/07/17 03:01:07;;;;;;;4.47;1.57;;;;;;;;;;5044020;28;20271;-81
2022/07/17 03:03:34;;;;;;;3.27;1.43;;;;;;;;;;5044791;28;20288;-81
2022/07/17 03:06:03;;;;;;;3.27;1.40;;;;;;;;;;5048807;28;20218;-81
2022/07/17 03:08:30;;;;;;;2.67;1.60;;;;;;;;;;5048541;28;20235;-81
2022/07/17 03:10:57;;;;;;;3.50;1.80;;;;;;;;;;5055047;28;20227;-81
2022/07/17 03:13:24;;;;;;;4.00;1.50;;;;;;;;;;5056644;28;20321;-80
2022/07/17 03:15:51;;;;;;;3.83;1.50;;;;;;;;;;5057455;28;20242;-80
2022/07/17 03:18:18;;;;;;;2.63;1.50;;;;;;;;;;5054625;28;20210;-81
2022/07/17 03:20:46;;;;;;;5.17;1.23;;;;;;;;;;5058740;28;20266;-80
2022/07/17 03:23:14;;;;;;;6.87;1.70;;;;;;;;;;5055838;28;20765;-80
2022/07/17 03:25:41;;;;;;;4.07;1.47;;;;;;;;;;5058366;28;20238;-80
2022/07/17 03:28:09;;;;;;;2.07;1.40;;;;;;;;;;5052883;28;20208;-81
2022/07/17 03:30:36;;;;;;;2.70;1.50;;;;;;;;;;5044918;28;20261;-80
2022/07/17 03:33:03;;;;;;;10.37;1.93;;;;;;;;;;5044876;28;20284;-80
2022/07/17 03:35:31;;;;;;;2.80;1.40;;;;;;;;;;5048414;28;20224;-81
2022/07/17 03:37:58;;;;;;;3.60;1.60;;;;;;;;;;5045138;28;20231;-80
2022/07/17 03:40:26;;;;;;;4.03;1.40;;;;;;;;;;5044960;28;21280;-81
2022/07/17 03:42:54;;;;;;;6.20;1.90;;;;;;;;;;5045241;28;20199;-81
2022/07/17 03:45:21;;;;;;;5.00;1.63;;;;;;;;;;5044849;28;20979;-80
2022/07/17 03:47:48;;;;;;;5.57;1.70;;;;;;;;;;5046884;28;20286;-81
2022/07/17 03:50:15;;;;;;;2.83;1.37;;;;;;;;;;5044313;28;20242;-79
2022/07/17 03:52:42;;;;;;;3.73;1.50;;;;;;;;;;5045836;28;20211;-80
2022/07/17 03:55:10;;;;;;;6.50;1.60;;;;;;;;;;5045371;28;20254;-80
2022/07/17 03:57:38;;;;;;;5.73;1.80;;;;;;;;;;5046081;28;20292;-80
2022/07/17 04:00:07;;;;;;;2.57;1.30;;;;;;;;;;5043092;28;20660;-80
2022/07/17 04:02:34;;;;;;;4.67;1.43;;;;;;;;;;5042028;28;20208;-81
2022/07/17 04:05:01;;;;;;;3.37;1.50;;;;;;;;;;5044943;28;20224;-80
2022/07/17 04:07:28;;;;;;;7.37;1.73;;;;;;;;;;5045055;28;20677;-80
2022/07/17 04:09:56;;;;;;;4.67;1.43;;;;;;;;;;5042893;28;20401;-80
2022/07/17 04:12:23;;;;;;;5.23;1.50;;;;;;;;;;5044983;28;20290;-80
2022/07/17 04:14:52;;;;;;;3.50;1.13;;;;;;;;;;5045391;28;20290;-81
2022/07/17 04:17:19;;;;;;;2.57;1.10;;;;;;;;;;5043990;28;20214;-81
2022/07/17 04:19:46;;;;;;;2.30;1.10;;;;;;;;;;5043057;28;20203;-80
2022/07/17 04:22:13;;;;;;;2.40;0.93;;;;;;;;;;5043223;28;20290;-81
2022/07/17 04:24:40;;;;;;;2.63;1.00;;;;;;;;;;5043482;28;20302;-80
2022/07/17 04:27:08;;;;;;;6.00;1.10;;;;;;;;;;5044428;28;20289;-80
2022/07/17 04:29:35;;;;;;;2.97;1.20;;;;;;;;;;5043757;28;20689;-81
2022/07/17 04:32:04;;;;;;;3.83;1.10;;;;;;;;;;5044994;28;20291;-79
2022/07/17 04:34:32;;;;;;;2.00;0.90;;;;;;;;;;5047012;28;20288;-81
2022/07/17 04:36:59;;;;;;;7.53;1.00;;;;;;;;;;5043681;28;20230;-81
2022/07/17 04:39:26;;;;;;;2.80;1.00;;;;;;;;;;5044565;28;20236;-81
2022/07/17 04:41:53;;;;;;;2.50;1.00;;;;;;;;;;5041747;28;20234;-81
2022/07/17 04:44:21;;;;;;;4.00;1.10;;;;;;;;;;5042440;28;20266;-81
2022/07/17 04:46:48;;;;;;;1.60;1.00;;;;;;;;;;5047327;28;20203;-81
2022/07/17 04:49:16;;;;;;;2.83;0.90;;;;;;;;;;5044280;28;20261;-81
2022/07/17 04:51:58;;;;;;;6.40;0.93;;;;;;;;;;5042603;28;20282;-81
2022/07/17 04:54:26;;;;;;;4.83;1.10;;;;;;;;;;5044575;28;20231;-81
2022/07/17 04:56:53;;;;;;;2.03;0.93;;;;;;;;;;5044169;28;20270;-81
2022/07/17 04:59:20;;;;;;;2.40;1.00;;;;;;;;;;5042550;28;20206;-81
2022/07/17 05:01:47;;;;;;;2.57;0.90;;;;;;;;;;5042123;28;20199;-80
2022/07/17 05:04:14;;;;;;;2.43;0.70;;;;;;;;;;5043009;28;20251;-81
2022/07/17 05:06:43;;;;;;;2.30;0.90;;;;;;;;;;5041402;28;20270;-81
2022/07/17 05:09:10;;;;;;;2.43;0.87;;;;;;;;;;5040651;28;20294;-80
2022/07/17 05:11:37;;;;;;;5.70;1.10;;;;;;;;;;5043614;28;20387;-81
2022/07/17 05:14:04;;;;;;;2.40;0.70;;;;;;;;;;5043396;28;20323;-81
2022/07/17 05:16:31;;;;;;;3.47;0.83;;;;;;;;;;5047874;28;20285;-81
2022/07/17 05:18:58;;;;;;;2.53;1.00;;;;;;;;;;5042417;28;20208;-81
2022/07/17 05:21:26;;;;;;;1.43;0.80;;;;;;;;;;5044803;28;22104;-81
2022/07/17 05:23:54;;;;;;;2.23;0.80;;;;;;;;;;5042467;28;20223;-81
2022/07/17 05:26:21;;;;;;;2.37;0.83;;;;;;;;;;5043788;28;20211;-81
2022/07/17 05:28:49;;;;;;;4.83;1.00;;;;;;;;;;5045389;28;20223;-81
2022/07/17 05:31:16;;;;;;;2.70;0.80;;;;;;;;;;5044420;28;20236;-81
2022/07/17 05:33:43;;;;;;;2.50;0.90;;;;;;;;;;5044531;28;20667;-81
2022/07/17 05:36:10;;;;;;;4.23;1.00;;;;;;;;;;5042100;28;20270;-81
2022/07/17 05:38:38;;;;;;;2.90;1.10;;;;;;;;;;5045129;28;20216;-81
2022/07/17 06:42:30;;;;;;;3.07;0.90;;;;;;;;;;4933270;28;20218;-75
2022/07/17 06:44:57;;;;;;;2.83;1.00;;;;;;;;;;4940831;28;20286;-75
2022/07/17 06:47:25;;;;;;;2.00;0.80;;;;;;;;;;4937583;28;20269;-75
2022/07/17 06:49:52;;;;;;;2.80;0.87;;;;;;;;;;4932391;28;20226;-75
2022/07/17 06:52:19;;;;;;;3.53;1.00;;;;;;;;;;4932856;28;20298;-75
2022/07/17 06:54:46;;;;;;;1.93;0.60;;;;;;;;;;4940496;28;20283;-74
2022/07/17 06:57:13;;;;;;;5.97;1.00;;;;;;;;;;4935257;28;20681;-75
2022/07/17 06:59:42;;;;;;;2.53;0.93;;;;;;;;;;4942708;28;20538;-74
2022/07/17 07:02:09;;;;;;;4.33;0.97;;;;;;;;;;4939079;28;20207;-76
2022/07/17 07:04:36;;;;;;;2.93;1.00;;;;;;;;;;4943182;28;20246;-74
2022/07/17 07:07:03;;;;;;;6.63;1.20;;;;;;;;;;4936427;28;20616;-75
2022/07/17 07:09:31;;;;;;;2.53;0.80;;;;;;;;;;4942551;28;22551;-74
2022/07/17 07:11:58;;;;;;;3.77;1.00;;;;;;;;;;4938550;28;20260;-74
2022/07/17 07:14:25;;;;;;;2.20;0.80;;;;;;;;;;4940325;28;20319;-75
2022/07/17 07:16:53;;;;;;;2.70;0.97;;;;;;;;;;4935725;28;20292;-75
2022/07/17 07:19:21;;;;;;;3.70;0.90;;;;;;;;;;4935771;28;20318;-76
2022/07/17 07:21:48;;;;;;;3.37;0.77;;;;;;;;;;4938815;28;20244;-75
2022/07/17 07:24:15;;;;;;;4.90;1.00;;;;;;;;;;4929124;28;20301;-76
2022/07/17 07:26:42;;;;;;;3.17;0.73;;;;;;;;;;4942538;28;20235;-75
2022/07/17 07:29:09;;;;;;;3.10;0.90;;;;;;;;;;4937129;28;20317;-75
2022/07/17 07:31:37;;;;;;;2.40;0.80;;;;;;;;;;4943093;28;20674;-75
2022/07/17 07:34:05;;;;;;;4.87;1.40;;;;;;;;;;4944223;28;20320;-75
2022/07/17 07:36:33;;;;;;;9.70;1.03;;;;;;;;;;4933239;28;20761;-75
2022/07/17 07:39:00;;;;;;;3.50;0.93;;;;;;;;;;4934424;28;20234;-75
2022/07/17 07:41:27;;;;;;;3.83;0.77;;;;;;;;;;4934285;28;20745;-75
2022/07/17 07:43:54;;;;;;;4.00;0.95;;;;;;;;;;4943823;28;20235;-75
2022/07/17 07:46:21;;;;;;;2.75;0.80;;;;;;;;;;4932282;28;20294;-75
2022/07/17 07:48:48;;;;;;;2.80;1.10;;;;;;;;;;4932729;28;20305;-74
2022/07/17 07:51:17;;;;;;;4.72;1.00;;;;;;;;;;4946884;28;20878;-74
2022/07/17 07:53:44;;;;;;;2.42;0.70;;;;;;;;;;4934885;28;20239;-74
2022/07/17 07:56:12;;;;;;;3.92;0.98;;;;;;;;;;4934620;28;20220;-76
2022/07/17 07:58:39;;;;;;;3.03;0.80;;;;;;;;;;4935026;28;20317;-76
2022/07/17 08:01:06;;;;;;;4.70;0.80;;;;;;;;;;4933157;28;20229;-76
2022/07/17 08:03:33;;;;;;;5.57;1.25;;;;;;;;;;4943089;28;20208;-76
2022/07/17 08:06:00;;;;;;;2.90;0.90;;;;;;;;;;4936723;28;20286;-75
2022/07/17 08:08:29;;;;;;;4.68;1.15;;;;;;;;;;4932976;28;20303;-76
2022/07/17 08:10:56;;;;;;;2.53;0.70;;;;;;;;;;4929392;28;20244;-76
2022/07/17 08:13:23;;;;;;;2.85;0.80;;;;;;;;;;4943194;28;20318;-75
2022/07/17 08:15:51;;;;;;;2.95;0.75;;;;;;;;;;4946160;28;20674;-74
2022/07/17 08:18:18;;;;;;;3.85;0.93;;;;;;;;;;4937522;28;20233;-74
2022/07/17 08:20:45;;;;;;;4.27;0.80;;;;;;;;;;4930977;28;20204;-74
2022/07/17 08:23:12;;;;;;;4.30;0.73;;;;;;;;;;4941503;28;20700;-74
2022/07/17 08:25:41;;;;;;;4.30;1.05;;;;;;;;;;4931217;28;20289;-74
2022/07/17 08:28:08;;;;;;;6.88;0.93;;;;;;;;;;4928845;28;20297;-74
2022/07/17 08:30:36;;;;;;;2.33;0.63;;;;;;;;;;4933946;28;20681;-76
2022/07/17 08:33:03;;;;;;;5.07;0.80;;;;;;;;;;4930675;28;20711;-74
2022/07/17 08:35:30;;;;;;;2.90;0.67;;;;;;;;;;4943265;28;20820;-74
2022/07/17 08:38:00;;;;;;;4.40;0.90;;;;;;;;;;4937768;28;20268;-74
2022/07/17 08:40:28;;;;;;;3.50;0.87;;;;;;;;;;4939984;28;20884;-76
2022/07/17 08:42:57;;;;;;;2.37;0.90;;;;;;;;;;4927600;28;20753;-73
2022/07/17 08:45:25;;;;;;;5.20;0.70;;;;;;;;;;4940182;28;20244;-74
2022/07/17 08:47:54;;;;;;;2.53;0.73;;;;;;;;;;4935716;28;20290;-74
2022/07/17 08:50:23;;;;;;;5.20;0.90;;;;;;;;;;4930448;28;20223;-75
2022/07/17 08:52:50;;;;;;;3.67;0.90;;;;;;;;;;4939113;28;20234;-75
2022/07/17 08:55:17;;;;;;;5.83;0.97;;;;;;;;;;4942606;28;20258;-77
2022/07/17 08:57:45;;;;;;;4.10;0.97;;;;;;;;;;4929255;28;20207;-75
2022/07/17 09:00:15;;;;;;;4.20;1.00;;;;;;;;;;4938441;28;20293;-75
2022/07/17 09:02:53;;;;;;;3.83;0.87;;;;;;;;;;4937988;28;20214;-76
2022/07/17 09:05:23;;;;;;;1.93;0.87;;;;;;;;;;4934284;28;20614;-76
2022/07/17 09:07:51;;;;;;;5.13;0.80;;;;;;;;;;4934119;28;20239;-76
2022/07/17 09:10:18;;;;;;;5.33;0.90;;;;;;;;;;4930568;28;20238;-76
2022/07/17 09:12:45;;;;;;;3.13;0.80;;;;;;;;;;4935194;28;20311;-76
2022/07/17 09:15:17;;;;;;;1.43;0.60;;;;;;;;;;4932484;28;20253;-75
2022/07/17 09:17:51;;;;;;;2.27;0.83;;;;;;;;;;4942001;28;20306;-76
2022/07/17 09:20:19;;;;;;;4.73;0.70;;;;;;;;;;4931105;28;20326;-75
2022/07/17 09:22:46;;;;;;;6.37;1.03;;;;;;;;;;4938915;28;20654;-75
2022/07/17 09:25:13;;;;;;;2.07;0.77;;;;;;;;;;4933554;28;20295;-76
2022/07/17 09:27:40;;;;;;;2.37;0.70;;;;;;;;;;4940738;28;20215;-76
2022/07/17 09:30:09;;;;;;;1.37;0.63;;;;;;;;;;4944663;28;20234;-74
2022/07/17 09:32:39;;;;;;;2.57;0.67;;;;;;;;;;4934172;28;20687;-76
2022/07/17 09:35:07;;;;;;;2.23;0.60;;;;;;;;;;4932042;28;20233;-75
2022/07/17 09:37:35;;;;;;;3.87;0.70;;;;;;;;;;4933215;28;20259;-75
2022/07/17 09:40:03;;;;;;;4.30;0.70;;;;;;;;;;4927366;28;20270;-75
2022/07/17 09:42:31;;;;;;;5.00;0.70;;;;;;;;;;4926552;28;20286;-75
2022/07/17 09:44:59;;;;;;;1.93;0.73;;;;;;;;;;4934190;28;20204;-76
2022/07/17 09:47:26;;;;;;;4.20;0.73;;;;;;;;;;4929433;28;20596;-75
2022/07/17 09:49:55;;;;;;;2.37;0.70;;;;;;;;;;4932605;28;20254;-75
2022/07/17 09:52:24;;;;;;;3.40;0.60;;;;;;;;;;4932406;28;20303;-75
2022/07/17 09:54:52;;;;;;;3.30;0.70;;;;;;;;;;4926623;28;20247;-75
2022/07/17 09:57:20;;;;;;;1.40;0.60;;;;;;;;;;4940436;28;20295;-76
2022/07/17 09:59:47;;;;;;;1.63;0.60;;;;;;;;;;4938393;28;20232;-75
2022/07/17 10:02:15;;;;;;;1.60;0.60;;;;;;;;;;4930098;28;20560;-75
2022/07/17 10:04:42;;;;;;;2.67;0.60;;;;;;;;;;4931185;28;20209;-74
2022/07/17 10:07:10;;;;;;;1.43;0.40;;;;;;;;;;4938387;28;20725;-76
2022/07/17 10:09:38;;;;;;;2.77;0.53;;;;;;;;;;4934551;28;20265;-75
2022/07/17 10:12:06;;;;;;;4.17;0.70;;;;;;;;;;4930871;28;20206;-75
2022/07/17 10:14:34;;;;;;;2.07;0.60;;;;;;;;;;4938811;28;20285;-75
2022/07/17 10:17:07;;;;;;;0.90;0.47;;;;;;;;;;4931607;28;20290;-75
2022/07/17 10:19:35;;;;;;;2.27;0.60;;;;;;;;;;4939863;28;20700;-75
2022/07/17 10:22:05;;;;;;;2.57;0.50;;;;;;;;;;4932335;28;20232;-75
2022/07/17 10:24:34;;;;;;;2.53;0.40;;;;;;;;;;4927193;28;20214;-75
2022/07/17 10:27:01;;;;;;;3.60;0.60;;;;;;;;;;4928562;28;20572;-74
2022/07/17 10:29:30;;;;;;;1.17;0.50;;;;;;;;;;4931029;28;20225;-75
2022/07/17 10:31:57;;;;;;;3.10;0.80;;;;;;;;;;4929457;28;20250;-75
2022/07/17 10:34:38;;;;;;;3.20;0.73;;;;;;;;;;4932665;28;20218;-76
2022/07/17 10:37:15;;;;;;;2.20;0.60;;;;;;;;;;4929506;28;20208;-74
2022/07/17 10:39:53;;;;;;;1.97;0.80;;;;;;;;;;4930602;28;20229;-75
2022/07/17 10:42:35;;;;;;;1.53;0.73;;;;;;;;;;4930923;28;20216;-75
2022/07/17 10:45:07;;;;;;;1.83;0.80;;;;;;;;;;4931443;28;20206;-76
2022/07/17 10:47:43;;;;;;;2.87;1.00;;;;;;;;;;4937430;28;20210;-76
2022/07/17 10:50:12;;;;;;;3.07;1.20;;;;;;;;;;4941120;28;20262;-75
2022/07/17 10:52:39;;;;;;;1.90;0.60;;;;;;;;;;4938745;28;20207;-76
2022/07/17 10:55:18;;;;;;;0.63;0.60;;;;;;;;;;4942515;28;20716;-74
2022/07/17 10:57:47;;;;;;;3.87;1.80;;;;;;;;;;4925214;28;20206;-75
2022/07/17 11:00:15;;;;;;;3.57;1.00;;;;;;;;;;4944892;28;20890;-74
2022/07/17 11:02:42;;;;;;;2.33;0.67;;;;;;;;;;4938626;28;20210;-75
2022/07/17 11:05:10;;;;;;;3.20;0.70;;;;;;;;;;4944334;28;20212;-75
2022/07/17 11:07:37;;;;;;;7.33;4.10;;;;;;;;;;4937676;28;20294;-76
2022/07/17 11:10:04;;;;;;;7.43;4.80;;;;;;;;;;4937950;28;20784;-75
2022/07/17 11:12:34;;;;;;;2.67;0.70;;;;;;;;;;4931056;28;20286;-73
2022/07/17 11:15:01;;;;;;;2.20;0.73;;;;;;;;;;4948446;28;20239;-74
2022/07/17 11:17:29;;;;;;;3.83;0.70;;;;;;;;;;4935908;28;20209;-75
2022/07/17 11:19:56;;;;;;;2.90;1.17;;;;;;;;;;4937223;28;20748;-75
2022/07/17 11:22:24;;;;;;;3.07;0.60;;;;;;;;;;4935853;28;20579;-74
2022/07/17 11:24:52;;;;;;;15.70;9.17;;;;;;;;;;4931442;28;20206;-75
2022/07/17 11:27:23;;;;;;;1.43;0.77;;;;;;;;;;4940108;28;20577;-75
2022/07/17 11:29:52;;;;;;;5.80;0.70;;;;;;;;;;4936584;28;20291;-75
2022/07/17 11:32:19;;;;;;;8.30;3.27;;;;;;;;;;4930089;28;20297;-75
2022/07/17 11:34:47;;;;;;;5.00;0.90;;;;;;;;;;4931868;28;20207;-76
2022/07/17 11:37:14;;;;;;;2.80;0.70;;;;;;;;;;4933271;28;20788;-74
2022/07/17 11:39:42;;;;;;;3.10;0.70;;;;;;;;;;4937097;28;20230;-75
2022/07/17 11:42:10;;;;;;;4.07;0.70;;;;;;;;;;4939733;28;20220;-75
2022/07/17 11:44:38;;;;;;;1.53;0.53;;;;;;;;;;4937096;28;22674;-75
2022/07/17 11:47:07;;;;;;;2.47;0.70;;;;;;;;;;4931313;28;20202;-75
2022/07/17 11:49:35;;;;;;;1.00;0.40;;;;;;;;;;4934507;28;20326;-74
2022/07/17 11:52:08;;;;;;;3.27;0.70;;;;;;;;;;4937762;28;20224;-76
2022/07/17 11:54:45;;;;;;;3.10;0.83;;;;;;;;;;4936082;28;20211;-75
2022/07/17 11:57:12;;;;;;;2.10;0.83;;;;;;;;;;4935353;28;20799;-75
2022/07/17 11:59:39;;;;;;;5.30;0.90;;;;;;;;;;4937828;28;20439;-76
2022/07/17 12:02:12;;;;;;;3.20;0.57;;;;;;;;;;4931200;28;20246;-74
2022/07/17 12:04:49;;;;;;;4.27;0.70;;;;;;;;;;4936367;28;20297;-74
2022/07/17 12:07:16;;;;;;;2.47;0.70;;;;;;;;;;4932723;28;20242;-74
2022/07/17 12:09:44;;;;;;;2.60;0.77;;;;;;;;;;4938547;28;20317;-74
2022/07/17 12:12:19;;;;;;;4.83;0.80;;;;;;;;;;4931562;28;20231;-74
2022/07/17 12:14:48;;;;;;;3.00;0.70;;;;;;;;;;4939632;28;20210;-74
2022/07/17 12:17:17;;;;;;;3.03;0.70;;;;;;;;;;4938221;28;20235;-74
2022/07/17 12:19:44;;;;;;;2.30;0.80;;;;;;;;;;4936819;28;20250;-74
2022/07/17 12:22:11;;;;;;;4.17;0.97;;;;;;;;;;4932635;28;20685;-74
2022/07/17 12:24:39;;;;;;;5.50;1.07;;;;;;;;;;4935739;28;20199;-74
2022/07/17 12:27:08;;;;;;;2.10;0.67;;;;;;;;;;4933975;28;20226;-74
2022/07/17 12:29:35;;;;;;;2.33;0.60;;;;;;;;;;4939577;28;20329;-74
2022/07/17 12:32:07;;;;;;;3.03;0.53;;;;;;;;;;4930332;28;20253;-74
2022/07/17 12:34:35;;;;;;;1.53;0.70;;;;;;;;;;4936134;28;20214;-73
2022/07/17 12:37:03;;;;;;;2.40;0.67;;;;;;;;;;4930567;28;20243;-73
2022/07/17 12:39:30;;;;;;;4.10;0.90;;;;;;;;;;4934230;28;20265;-72
2022/07/17 12:41:57;;;;;;;3.50;0.87;;;;;;;;;;4935237;28;20305;-73
2022/07/17 12:44:24;;;;;;;3.37;0.60;;;;;;;;;;4940792;28;20668;-73
2022/07/17 12:46:52;;;;;;;2.43;0.67;;;;;;;;;;4936678;28;20200;-73
2022/07/17 12:49:19;;;;;;;1.63;0.77;;;;;;;;;;4931287;28;20238;-76
2022/07/17 12:51:48;;;;;;;1.30;0.70;;;;;;;;;;4933744;28;20567;-73
2022/07/17 12:54:15;;;;;;;1.17;0.53;;;;;;;;;;4932531;28;20650;-75
2022/07/17 12:56:42;;;;;;;3.13;0.83;;;;;;;;;;4929988;28;20322;-73
2022/07/17 12:59:10;;;;;;;2.87;0.60;;;;;;;;;;4931925;28;20321;-73
2022/07/17 13:01:37;;;;;;;2.87;0.70;;;;;;;;;;4931334;28;20286;-73
2022/07/17 13:04:05;;;;;;;3.80;0.70;;;;;;;;;;4933017;28;20230;-73
2022/07/17 13:06:33;;;;;;;1.20;0.57;;;;;;;;;;4940584;28;20683;-73
2022/07/17 13:09:01;;;;;;;3.27;0.90;;;;;;;;;;4929971;28;20219;-73
2022/07/17 13:11:29;;;;;;;3.13;0.60;;;;;;;;;;4930773;28;20297;-75
2022/07/17 13:13:56;;;;;;;7.43;0.83;;;;;;;;;;4933056;28;20594;-72
2022/07/17 13:16:23;;;;;;;1.63;0.60;;;;;;;;;;4947610;28;20231;-72
2022/07/17 13:18:51;;;;;;;3.33;0.70;;;;;;;;;;4939455;28;20310;-73
2022/07/17 13:21:18;;;;;;;2.67;0.90;;;;;;;;;;4930774;28;20246;-73
2022/07/17 13:23:45;;;;;;;2.33;0.60;;;;;;;;;;4939449;28;20299;-73
2022/07/17 13:26:14;;;;;;;2.50;0.80;;;;;;;;;;4936476;28;20203;-73
2022/07/17 13:28:41;;;;;;;5.50;0.87;;;;;;;;;;4940494;28;20227;-73
2022/07/17 13:31:08;;;;;;;2.90;0.80;;;;;;;;;;4932231;28;20301;-74
2022/07/17 13:33:36;;;;;;;3.00;0.73;;;;;;;;;;4940562;28;20218;-74
2022/07/17 13:36:03;;;;;;;4.00;0.70;;;;;;;;;;4939560;28;20250;-74
2022/07/17 13:38:30;;;;;;;1.13;0.60;;;;;;;;;;4934958;28;20207;-73
2022/07/17 13:40:57;;;;;;;4.97;0.80;;;;;;;;;;4927467;28;20303;-73
2022/07/17 13:43:26;;;;;;;4.10;0.53;;;;;;;;;;4928707;28;20203;-73
2022/07/17 13:45:53;;;;;;;2.87;0.87;;;;;;;;;;4934931;28;20286;-73
2022/07/17 13:48:20;;;;;;;3.03;0.80;;;;;;;;;;4934373;28;20278;-74
2022/07/17 13:50:47;;;;;;;3.23;0.80;;;;;;;;;;4938622;28;20761;-74
2022/07/17 13:53:15;;;;;;;3.47;1.10;;;;;;;;;;4929978;28;20793;-73
2022/07/17 13:55:42;;;;;;;2.23;0.73;;;;;;;;;;4932490;28;20238;-74
2022/07/17 13:58:09;;;;;;;2.53;0.73;;;;;;;;;;4930217;28;20298;-74
2022/07/17 14:00:37;;;;;;;2.30;0.80;;;;;;;;;;4926324;28;20254;-75
2022/07/17 14:03:05;;;;;;;3.47;0.90;;;;;;;;;;4928613;28;20315;-73
2022/07/17 14:05:32;;;;;;;1.80;0.70;;;;;;;;;;4928734;28;20207;-74
2022/07/17 14:07:59;;;;;;;2.03;0.80;;;;;;;;;;4929815;28;20312;-73
2022/07/17 14:10:26;;;;;;;2.87;0.50;;;;;;;;;;4940335;28;20318;-74
2022/07/17 14:12:54;;;;;;;1.13;0.50;;;;;;;;;;4931936;28;20235;-74
2022/07/17 14:15:21;;;;;;;3.00;0.83;;;;;;;;;;4931399;28;20740;-74
2022/07/17 14:17:50;;;;;;;3.83;0.73;;;;;;;;;;4937973;28;20219;-74
2022/07/17 14:20:17;;;;;;;2.30;0.73;;;;;;;;;;4939855;28;20378;-74
2022/07/17 14:22:45;;;;;;;2.60;0.80;;;;;;;;;;4935131;28;20552;-75
2022/07/17 14:25:12;;;;;;;2.23;0.73;;;;;;;;;;4934174;28;20276;-74
2022/07/17 14:27:39;;;;;;;3.30;0.90;;;;;;;;;;4931455;28;20651;-74
2022/07/17 14:30:07;;;;;;;2.13;0.83;;;;;;;;;;4942020;28;20322;-74
2022/07/17 14:32:34;;;;;;;3.13;0.80;;;;;;;;;;4939313;28;20212;-75
2022/07/17 14:35:03;;;;;;;2.43;0.60;;;;;;;;;;4937353;28;20258;-76
2022/07/17 14:37:30;;;;;;;3.47;1.10;;;;;;;;;;4938786;28;20231;-75
2022/07/17 14:39:57;;;;;;;2.93;0.90;;;;;;;;;;4930796;28;20337;-74
2022/07/17 14:42:25;;;;;;;2.30;0.80;;;;;;;;;;4942921;28;20302;-76
2022/07/17 14:44:52;;;;;;;1.43;0.77;;;;;;;;;;4932425;28;20246;-76
2022/07/17 14:47:19;;;;;;;2.07;0.67;;;;;;;;;;4935895;28;20586;-74
2022/07/17 14:49:46;;;;;;;0.97;0.57;;;;;;;;;;4930641;28;20318;-74
2022/07/17 14:52:15;;;;;;;3.10;1.00;;;;;;;;;;4931592;28;20207;-75
2022/07/17 14:54:42;;;;;;;3.07;0.80;;;;;;;;;;4931227;28;20737;-75
2022/07/17 14:57:09;;;;;;;2.57;0.70;;;;;;;;;;4934528;28;20713;-75
2022/07/17 14:59:36;;;;;;;3.63;1.00;;;;;;;;;;4936701;28;20309;-75
2022/07/17 15:02:04;;;;;;;2.43;0.80;;;;;;;;;;4935405;28;20303;-75
2022/07/17 15:04:31;;;;;;;1.60;0.73;;;;;;;;;;4940451;28;20209;-75
2022/07/17 15:06:58;;;;;;;2.17;0.87;;;;;;;;;;4928991;28;20336;-75
2022/07/17 15:09:27;;;;;;;2.00;0.87;;;;;;;;;;4937368;28;20362;-75
2022/07/17 15:11:54;;;;;;;2.70;1.00;;;;;;;;;;4946742;28;20298;-74
2022/07/17 15:14:21;;;;;;;4.57;0.90;;;;;;;;;;4943549;28;20206;-75
2022/07/17 15:16:48;;;;;;;1.97;0.90;;;;;;;;;;4934585;28;20317;-75
2022/07/17 15:19:16;;;;;;;3.83;0.90;;;;;;;;;;4935116;28;20605;-75
2022/07/17 15:21:43;;;;;;;1.97;0.70;;;;;;;;;;4935085;28;20242;-74
2022/07/17 15:24:10;;;;;;;3.07;0.73;;;;;;;;;;4935261;28;20214;-75
2022/07/17 15:26:40;;;;;;;4.03;0.70;;;;;;;;;;4939883;28;20781;-76
2022/07/17 15:29:07;;;;;;;3.40;1.07;;;;;;;;;;4934854;28;20258;-75
2022/07/17 15:31:35;;;;;;;8.97;0.70;;;;;;;;;;4940262;28;20773;-75
2022/07/17 15:34:02;;;;;;;3.37;0.87;;;;;;;;;;4942914;28;20239;-75
2022/07/17 15:36:29;;;;;;;3.27;0.90;;;;;;;;;;4938751;28;20263;-75
2022/07/17 15:38:57;;;;;;;3.23;0.67;;;;;;;;;;4941170;28;20318;-75
2022/07/17 15:41:24;;;;;;;2.90;0.70;;;;;;;;;;4935079;28;20270;-75
2022/07/17 15:43:53;;;;;;;1.97;0.60;;;;;;;;;;4945168;28;20295;-75
2022/07/17 15:46:20;;;;;;;3.47;0.80;;;;;;;;;;4939891;28;20211;-75
2022/07/17 15:48:48;;;;;;;1.50;0.70;;;;;;;;;;4940380;28;20341;-75
2022/07/17 15:51:15;;;;;;;4.17;0.73;;;;;;;;;;4944989;28;20299;-75